»·PEaware :: N3891R KSNA-KCRQ

N3891R :: KSNA-KCRQ

FLIGHT INFORMATION

Flight Status: Arrived
Operator: Privately registered:
United States
More flights under this callsign
Pilot: Markus B. (22479)
Aircraft: CESSNA 172 SKYHAWK
(C172)
More flights by this aircraft type
Origin: KSNA John Wayne-Orange Co
United States
Destination: KCRQ McClellan-Palomar
United States
More flights between these airports :: More routes between these airports
Route: +V23 OCN
File this flight plan on PilotEdge
Remarks: I-2
Altitude:
(Current/Filed)
5,000ft
Speed:
(Current/Filed)
120kts
Departed: 27-Dec-18 02:56 PM
Arrived: 27-Dec-18 03:32 PM
Distance/Time
Traveled:
44nm/0:35
Distance/Time
To Go:
Arrived

Flight Plot

Page will automatically refresh every two minutes.


Map Options




Map Legend


Flown Route
Filed Route
Departure Airport
Arrival Airport
Navaid (VOR, NDB)
Fix

Horizontal Profiles

Position Reports

Time Latitude Longitude Heading Altitude Ground
Speed
27-Dec-18 14:27 33.671523 -117.867373 199 60ft 0kts
27-Dec-18 14:28 33.671523 -117.867373 199 60ft 0kts
27-Dec-18 14:29 33.671523 -117.867373 199 60ft 0kts
27-Dec-18 14:30 33.671523 -117.867373 199 60ft 0kts
27-Dec-18 14:31 33.671523 -117.867373 199 60ft 0kts
27-Dec-18 14:32 33.671523 -117.867373 199 60ft 0kts
27-Dec-18 14:33 33.671523 -117.867373 199 60ft 0kts
27-Dec-18 14:34 33.671523 -117.867373 199 60ft 0kts
27-Dec-18 14:35 33.671523 -117.867373 199 60ft 0kts
27-Dec-18 14:36 33.671523 -117.867373 199 60ft 0kts
27-Dec-18 14:37 33.671523 -117.867373 199 60ft 0kts
27-Dec-18 14:38 33.671523 -117.867373 199 60ft 0kts
27-Dec-18 14:39 33.671523 -117.867373 199 60ft 0kts
27-Dec-18 14:40 33.671523 -117.867373 199 60ft 0kts
27-Dec-18 14:41 33.671523 -117.867373 199 60ft 0kts
27-Dec-18 14:42 33.671523 -117.867373 199 60ft 0kts
27-Dec-18 14:43 33.671523 -117.867373 199 60ft 0kts
27-Dec-18 14:44 33.671523 -117.867373 199 60ft 0kts
27-Dec-18 14:45 33.671523 -117.867373 199 60ft 0kts
27-Dec-18 14:46 33.671523 -117.867373 198 60ft 0kts
27-Dec-18 14:46 33.673010 -117.867419 50 60ft 23kts
27-Dec-18 14:47 33.679011 -117.863336 28 60ft 33kts
27-Dec-18 14:48 33.679916 -117.863496 299 60ft 0kts
27-Dec-18 14:49 33.679916 -117.863496 299 60ft 0kts
27-Dec-18 14:50 33.679916 -117.863496 299 60ft 0kts
27-Dec-18 14:52 33.679916 -117.863496 299 60ft 0kts
27-Dec-18 14:52 33.679916 -117.863496 299 60ft 0kts
27-Dec-18 14:53 33.679916 -117.863496 299 60ft 0kts
27-Dec-18 14:54 33.679959 -117.863582 299 60ft 8kts
27-Dec-18 14:55 33.668820 -117.872473 214 526ft 76kts
27-Dec-18 14:56 33.647765 -117.877777 185 1505ft 79kts
27-Dec-18 14:57 33.625354 -117.881131 186 2408ft 85kts
27-Dec-18 14:58 33.611890 -117.865157 97 3277ft 84kts
27-Dec-18 14:59 33.597196 -117.843338 142 3998ft 94kts
27-Dec-18 15:00 33.577020 -117.825335 137 4719ft 99kts
27-Dec-18 15:01 33.555746 -117.800649 119 5184ft 104kts
27-Dec-18 15:02 33.535630 -117.766538 142 4913ft 125kts
27-Dec-18 15:03 33.508517 -117.740174 141 4917ft 127kts
27-Dec-18 15:04 33.483294 -117.710098 134 4922ft 127kts
27-Dec-18 15:05 33.458307 -117.679708 134 4922ft 128kts
27-Dec-18 15:06 33.433339 -117.649481 134 4920ft 122kts
27-Dec-18 15:07 33.410885 -117.622449 134 4917ft 115kts
27-Dec-18 15:08 33.387684 -117.594612 134 4919ft 119kts
27-Dec-18 15:09 33.363948 -117.566820 136 4919ft 119kts
27-Dec-18 15:10 33.339560 -117.539786 136 4919ft 119kts
27-Dec-18 15:11 33.315068 -117.512658 136 4918ft 119kts
27-Dec-18 15:12 33.290684 -117.485630 136 4917ft 119kts
27-Dec-18 15:13 33.266218 -117.458698 136 4916ft 119kts
27-Dec-18 15:14 33.241708 -117.431868 137 4915ft 119kts
27-Dec-18 15:15 33.243858 -117.395867 67 4551ft 129kts
27-Dec-18 15:16 33.237771 -117.355772 106 4393ft 122kts
27-Dec-18 15:17 33.230410 -117.315889 98 4282ft 120kts
27-Dec-18 15:18 33.222963 -117.276164 92 4253ft 113kts
27-Dec-18 15:19 33.218211 -117.239140 97 4376ft 119kts
27-Dec-18 15:20 33.213470 -117.202081 126 4377ft 122kts
27-Dec-18 15:21 33.196933 -117.179667 63 4416ft 117kts
27-Dec-18 15:22 33.206216 -117.143347 90 4453ft 119kts
27-Dec-18 15:23 33.202770 -117.103799 96 4442ft 120kts
27-Dec-18 15:24 33.186044 -117.074065 185 4153ft 133kts
27-Dec-18 15:25 33.159704 -117.098658 255 3317ft 115kts
27-Dec-18 15:26 33.152746 -117.132602 253 2518ft 110kts
27-Dec-18 15:27 33.144563 -117.171174 265 1157ft 144kts
27-Dec-18 15:28 33.139549 -117.210948 259 1540ft 116kts
27-Dec-18 15:29 33.134169 -117.243112 257 832ft 83kts
27-Dec-18 15:30 33.130207 -117.268390 260 429ft 66kts
27-Dec-18 15:31 33.128466 -117.278627 244 335ft 2kts
27-Dec-18 15:32 33.126739 -117.281175 84 335ft 0kts
27-Dec-18 15:33 33.126739 -117.281175 84 335ft 0kts
27-Dec-18 15:34 33.126739 -117.281175 84 335ft 0kts

Navigation Log

Ident Type
Flight plan parsing failed, navigation log unavailable